Time;durP1;ratioP1;P1;durP2;ratioP2;P2;SDS_P1;SDS_P2;PMS_P1;PMS_P2;Temp;Humidity;BMP_temperature;BMP_pressure;BME280_temperature;BME280_humidity;BME280_pressure;Samples;Min_cycle;Max_cycle;Signal;HPM_P1;HPM_P2
2023/04/16 00:02:05;;;;;;;;;;;9.40;99.90;;;;;;8383708;28;20257;-72
2023/04/16 00:06:07;;;;;;;;;;;9.40;99.90;;;;;;8377576;28;19940;-72
2023/04/16 00:10:09;;;;;;;;;;;9.40;99.90;;;;;;8382067;28;19928;-72
2023/04/16 00:14:10;;;;;;;;;;;9.40;99.90;;;;;;8383317;28;19952;-72
2023/04/16 00:18:12;;;;;;;;;;;9.40;99.90;;;;;;8383453;28;19928;-72
2023/04/16 00:22:14;;;;;;;;;;;9.40;99.90;;;;;;8387995;28;19990;-72
2023/04/16 00:26:15;;;;;;;;;;;9.40;99.90;;;;;;8383164;28;19987;-72
2023/04/16 00:30:17;;;;;;;;;;;9.40;99.90;;;;;;8402788;28;20225;-72
2023/04/16 00:34:19;;;;;;;;;;;9.40;99.90;;;;;;8391443;28;20556;-72
2023/04/16 00:38:20;;;;;;;;;;;9.40;99.90;;;;;;8386145;28;19929;-72
2023/04/16 00:42:22;;;;;;;;;;;9.40;99.90;;;;;;8392546;28;19985;-72
2023/04/16 00:46:23;;;;;;;;;;;9.40;99.90;;;;;;8404712;28;19928;-72
2023/04/16 00:50:25;;;;;;;;;;;9.40;99.90;;;;;;8392500;28;19924;-71
2023/04/16 00:54:27;;;;;;;;;;;9.40;99.90;;;;;;8386799;28;19928;-72
2023/04/16 00:58:29;;;;;;;;;;;9.40;99.90;;;;;;8377256;28;19924;-72
2023/04/16 01:02:32;;;;;;;;;;;9.40;99.90;;;;;;8381427;28;19928;-72
2023/04/16 01:06:34;;;;;;;;;;;9.30;99.90;;;;;;8392387;28;19932;-72
2023/04/16 01:10:35;;;;;;;;;;;9.40;99.90;;;;;;8394224;28;19925;-71
2023/04/16 01:29:48;;;;;;;;;;;9.30;99.90;;;;;;8383122;28;19927;-72
2023/04/16 01:33:50;;;;;;;;;;;9.30;99.90;;;;;;8396045;28;19964;-72
2023/04/16 01:37:52;;;;;;;;;;;9.30;99.90;;;;;;8388829;28;19960;-72
2023/04/16 01:41:53;;;;;;;;;;;9.30;99.90;;;;;;8387595;28;19947;-72
2023/04/16 01:46:05;;;;;;;;;;;9.30;99.90;;;;;;8411987;28;19997;-72
2023/04/16 01:50:06;;;;;;;;;;;9.30;99.90;;;;;;8378760;28;20291;-72
2023/04/16 01:54:08;;;;;;;;;;;9.20;99.90;;;;;;8383626;28;19928;-72
2023/04/16 01:58:12;;;;;;;;;;;9.20;99.90;;;;;;8382109;28;20283;-72
2023/04/16 02:02:15;;;;;;;;;;;9.20;99.90;;;;;;8388624;28;19976;-72
2023/04/16 02:06:16;;;;;;;;;;;9.20;99.90;;;;;;8401969;28;20547;-72
2023/04/16 02:10:18;;;;;;;;;;;9.20;99.90;;;;;;8402788;28;20023;-72
2023/04/16 02:14:21;;;;;;;;;;;9.20;99.90;;;;;;8390397;28;20385;-72
2023/04/16 02:18:23;;;;;;;;;;;9.20;99.90;;;;;;8382122;28;19932;-72
2023/04/16 02:22:24;;;;;;;;;;;9.20;99.90;;;;;;8381222;28;19924;-72
2023/04/16 02:26:27;;;;;;;;;;;9.20;99.90;;;;;;8385021;28;19930;-72
2023/04/16 02:30:30;;;;;;;;;;;9.20;99.90;;;;;;8384291;28;19935;-72
2023/04/16 02:34:33;;;;;;;;;;;9.20;99.90;;;;;;8391232;28;19932;-72
2023/04/16 02:38:36;;;;;;;;;;;9.20;99.90;;;;;;8389613;28;19962;-72
2023/04/16 02:42:37;;;;;;;;;;;9.20;99.90;;;;;;8389692;28;20026;-72
2023/04/16 02:46:39;;;;;;;;;;;9.20;99.90;;;;;;8389918;28;19932;-72
2023/04/16 02:50:41;;;;;;;;;;;9.20;99.90;;;;;;8392525;28;20280;-72
2023/04/16 02:54:42;;;;;;;;;;;9.20;99.90;;;;;;8395107;28;20008;-72
2023/04/16 02:58:44;;;;;;;;;;;9.20;99.90;;;;;;8383213;28;19924;-72
2023/04/16 03:02:46;;;;;;;;;;;9.20;99.90;;;;;;8390102;28;19925;-72
2023/04/16 03:21:50;;;;;;;;;;;9.20;99.90;;;;;;8378543;28;19920;-72
2023/04/16 03:25:52;;;;;;;;;;;9.30;99.90;;;;;;8388232;28;20394;-72
2023/04/16 03:29:54;;;;;;;;;;;9.30;99.90;;;;;;8385773;28;19931;-72
2023/04/16 03:33:56;;;;;;;;;;;9.30;99.90;;;;;;8382170;28;20313;-72
2023/04/16 03:37:57;;;;;;;;;;;9.30;99.90;;;;;;8390553;28;19925;-72
2023/04/16 03:41:59;;;;;;;;;;;9.20;99.90;;;;;;8384546;28;19928;-72
2023/04/16 03:46:00;;;;;;;;;;;9.20;99.90;;;;;;8386983;28;19940;-72
2023/04/16 03:50:02;;;;;;;;;;;9.20;99.90;;;;;;8379652;28;19925;-72
2023/04/16 03:54:04;;;;;;;;;;;9.20;99.90;;;;;;8392064;28;19928;-72
2023/04/16 03:58:05;;;;;;;;;;;9.20;99.90;;;;;;8385463;28;19931;-72
2023/04/16 04:02:07;;;;;;;;;;;9.20;99.90;;;;;;8384450;28;19932;-72
2023/04/16 04:06:09;;;;;;;;;;;9.20;99.90;;;;;;8393585;28;19946;-72
2023/04/16 04:10:10;;;;;;;;;;;9.20;99.90;;;;;;8390132;28;20571;-72
2023/04/16 04:14:12;;;;;;;;;;;9.20;99.90;;;;;;8396857;28;19932;-72
2023/04/16 04:18:14;;;;;;;;;;;9.20;99.90;;;;;;8391362;28;20031;-72
2023/04/16 04:22:15;;;;;;;;;;;9.20;99.90;;;;;;8390853;28;19932;-72
2023/04/16 04:26:17;;;;;;;;;;;9.20;99.90;;;;;;8390961;28;19925;-72
2023/04/16 04:30:19;;;;;;;;;;;9.20;99.90;;;;;;8383407;28;19929;-72
2023/04/16 04:34:20;;;;;;;;;;;9.20;99.90;;;;;;8387223;28;20425;-72
2023/04/16 04:38:24;;;;;;;;;;;9.10;99.90;;;;;;8403862;28;20389;-72
2023/04/16 04:42:26;;;;;;;;;;;9.10;99.90;;;;;;8386054;28;19924;-72
2023/04/16 04:46:27;;;;;;;;;;;9.10;99.90;;;;;;8391932;28;20004;-72
2023/04/16 04:50:29;;;;;;;;;;;9.10;99.90;;;;;;8390688;28;20019;-72
2023/04/16 04:54:31;;;;;;;;;;;9.10;99.90;;;;;;8386322;28;20418;-72
2023/04/16 04:58:32;;;;;;;;;;;9.10;99.90;;;;;;8377572;28;20011;-72
2023/04/16 05:02:34;;;;;;;;;;;9.10;99.90;;;;;;8377575;28;19962;-72
2023/04/16 05:06:36;;;;;;;;;;;9.10;99.90;;;;;;8386272;28;20578;-72
2023/04/16 05:10:37;;;;;;;;;;;9.10;99.90;;;;;;8387512;28;20007;-72
2023/04/16 05:14:39;;;;;;;;;;;9.20;99.90;;;;;;8380555;28;19982;-72
2023/04/16 05:18:41;;;;;;;;;;;9.20;99.90;;;;;;8384225;28;19967;-72
2023/04/16 05:22:42;;;;;;;;;;;9.20;99.90;;;;;;8398471;28;19979;-72
2023/04/16 05:26:44;;;;;;;;;;;9.20;99.90;;;;;;8387608;28;19932;-72
2023/04/16 05:30:46;;;;;;;;;;;9.20;99.90;;;;;;8382420;28;19933;-72
2023/04/16 05:34:48;;;;;;;;;;;9.20;99.90;;;;;;8369035;28;19932;-72
2023/04/16 05:38:49;;;;;;;;;;;9.20;99.90;;;;;;8394431;28;19936;-72
2023/04/16 05:42:51;;;;;;;;;;;9.20;99.90;;;;;;8390156;28;20020;-72
2023/04/16 05:46:52;;;;;;;;;;;9.20;99.90;;;;;;8387231;28;20400;-72
2023/04/16 05:50:54;;;;;;;;;;;9.20;99.90;;;;;;8382547;28;20407;-72
2023/04/16 05:54:56;;;;;;;;;;;9.20;99.90;;;;;;8393335;28;19963;-72
2023/04/16 05:58:58;;;;;;;;;;;9.20;99.90;;;;;;8381568;28;19925;-72
2023/04/16 06:03:00;;;;;;;;;;;9.30;99.90;;;;;;8393711;28;19968;-72
2023/04/16 06:07:02;;;;;;;;;;;9.30;99.90;;;;;;8418395;27;19930;-72
2023/04/16 06:11:04;;;;;;;;;;;9.30;99.90;;;;;;8384876;28;19976;-72
2023/04/16 06:15:06;;;;;;;;;;;9.30;99.90;;;;;;8385178;28;20395;-72
2023/04/16 06:19:07;;;;;;;;;;;9.30;99.90;;;;;;8397996;28;19996;-72
2023/04/16 06:23:10;;;;;;;;;;;9.30;99.90;;;;;;8388149;28;19982;-72
2023/04/16 06:27:11;;;;;;;;;;;9.30;99.90;;;;;;8391343;28;20371;-72
2023/04/16 06:31:13;;;;;;;;;;;9.30;99.90;;;;;;8385012;28;19925;-72
2023/04/16 06:35:15;;;;;;;;;;;9.40;99.90;;;;;;8386368;28;19924;-72
2023/04/16 06:39:16;;;;;;;;;;;9.40;99.90;;;;;;8400387;28;20382;-72
2023/04/16 06:43:18;;;;;;;;;;;9.40;99.90;;;;;;8369079;28;22120;-72
2023/04/16 06:47:20;;;;;;;;;;;9.40;99.90;;;;;;8378693;28;20372;-72
2023/04/16 06:51:22;;;;;;;;;;;9.40;99.90;;;;;;8402205;28;19924;-72
2023/04/16 06:55:23;;;;;;;;;;;9.40;99.90;;;;;;8382140;28;19974;-72
2023/04/16 06:59:25;;;;;;;;;;;9.40;99.90;;;;;;8376589;28;20382;-72
2023/04/16 07:03:27;;;;;;;;;;;9.40;99.90;;;;;;8388523;28;19929;-72
2023/04/16 07:07:28;;;;;;;;;;;9.40;99.90;;;;;;8378120;28;19924;-72
2023/04/16 07:11:30;;;;;;;;;;;9.40;99.90;;;;;;8411805;27;20383;-72
2023/04/16 07:15:32;;;;;;;;;;;9.50;99.90;;;;;;8382368;28;19924;-72
2023/04/16 07:19:34;;;;;;;;;;;9.50;99.90;;;;;;8386069;28;20708;-72
2023/04/16 07:23:36;;;;;;;;;;;9.50;99.90;;;;;;8384936;28;20401;-72
2023/04/16 07:27:37;;;;;;;;;;;9.50;99.90;;;;;;8373023;28;19931;-72
2023/04/16 07:31:39;;;;;;;;;;;9.50;99.90;;;;;;8375300;28;20361;-72
2023/04/16 07:35:40;;;;;;;;;;;9.50;99.90;;;;;;8389120;28;20299;-72
2023/04/16 07:39:42;;;;;;;;;;;9.50;99.90;;;;;;8392556;28;19949;-73
2023/04/16 07:43:44;;;;;;;;;;;9.50;99.90;;;;;;8385599;28;19967;-72
2023/04/16 07:47:45;;;;;;;;;;;9.60;99.90;;;;;;8388319;28;19977;-72
2023/04/16 07:51:47;;;;;;;;;;;9.60;99.90;;;;;;8419718;27;19933;-72
2023/04/16 07:55:49;;;;;;;;;;;9.70;99.90;;;;;;8395403;28;20269;-72
2023/04/16 07:59:51;;;;;;;;;;;9.70;99.90;;;;;;8385320;28;19932;-72
2023/04/16 08:03:52;;;;;;;;;;;9.80;99.90;;;;;;8389070;28;19939;-72
2023/04/16 08:07:54;;;;;;;;;;;9.80;99.90;;;;;;8387029;28;20234;-72
2023/04/16 08:11:56;;;;;;;;;;;9.80;99.90;;;;;;8383829;28;20383;-72
2023/04/16 08:15:58;;;;;;;;;;;9.90;99.90;;;;;;8388973;28;20304;-72
2023/04/16 08:19:59;;;;;;;;;;;9.90;99.90;;;;;;8390121;28;19928;-72
2023/04/16 08:24:01;;;;;;;;;;;9.90;99.90;;;;;;8397088;28;19938;-72
2023/04/16 08:28:03;;;;;;;;;;;10.00;99.90;;;;;;8396319;28;19968;-71
2023/04/16 08:32:05;;;;;;;;;;;10.00;99.90;;;;;;8389862;28;19924;-72
2023/04/16 08:36:07;;;;;;;;;;;10.00;99.90;;;;;;8401708;28;19931;-72
2023/04/16 08:40:09;;;;;;;;;;;10.10;99.90;;;;;;8392367;28;19983;-72
2023/04/16 08:44:18;;;;;;;;;;;10.10;99.90;;;;;;8395505;28;19932;-72
2023/04/16 08:48:20;;;;;;;;;;;10.20;99.90;;;;;;8385553;28;19924;-72
2023/04/16 08:52:22;;;;;;;;;;;10.30;99.90;;;;;;8383824;28;20364;-72
2023/04/16 08:56:24;;;;;;;;;;;10.30;99.90;;;;;;8399789;28;19924;-71
2023/04/16 09:00:27;;;;;;;;;;;10.40;99.90;;;;;;8391988;28;19971;-72
2023/04/16 09:04:29;;;;;;;;;;;10.50;99.90;;;;;;8380480;28;19933;-72
2023/04/16 09:08:31;;;;;;;;;;;10.50;99.90;;;;;;8392430;28;19933;-72
2023/04/16 09:12:34;;;;;;;;;;;10.50;99.90;;;;;;8391928;28;19924;-72
2023/04/16 09:16:35;;;;;;;;;;;10.50;99.90;;;;;;8390981;28;20287;-72
2023/04/16 09:20:38;;;;;;;;;;;10.50;99.90;;;;;;8391638;28;20282;-72
2023/04/16 09:24:40;;;;;;;;;;;10.50;99.90;;;;;;8389844;28;20372;-72
2023/04/16 09:28:44;;;;;;;;;;;10.50;99.90;;;;;;8388855;28;19925;-72
2023/04/16 09:32:45;;;;;;;;;;;10.60;99.90;;;;;;8392969;28;19933;-72
2023/04/16 09:36:47;;;;;;;;;;;10.60;99.90;;;;;;8391217;28;19933;-72
2023/04/16 09:41:04;;;;;;;;;;;10.60;99.90;;;;;;8387354;28;19930;-72
2023/04/16 09:45:06;;;;;;;;;;;10.50;99.90;;;;;;8390510;28;20336;-72
2023/04/16 09:49:08;;;;;;;;;;;10.50;99.90;;;;;;8393303;28;19928;-72
2023/04/16 09:53:10;;;;;;;;;;;10.50;99.90;;;;;;8390764;28;19925;-72
2023/04/16 09:57:12;;;;;;;;;;;10.50;99.90;;;;;;8382032;28;19929;-72
2023/04/16 10:01:16;;;;;;;;;;;10.60;99.90;;;;;;8381600;28;19933;-72
2023/04/16 10:05:18;;;;;;;;;;;10.60;99.90;;;;;;8384600;28;19978;-72
2023/04/16 10:09:21;;;;;;;;;;;10.70;99.90;;;;;;8391570;28;20375;-72
2023/04/16 10:13:26;;;;;;;;;;;10.80;99.90;;;;;;8388995;28;19975;-72
2023/04/16 10:17:29;;;;;;;;;;;10.90;99.90;;;;;;8385260;28;19971;-72
2023/04/16 10:21:32;;;;;;;;;;;11.00;99.90;;;;;;8383599;28;20019;-72
2023/04/16 10:25:35;;;;;;;;;;;11.00;99.90;;;;;;8383830;28;19948;-72
2023/04/16 10:29:37;;;;;;;;;;;11.20;99.90;;;;;;8389600;28;19938;-72
2023/04/16 10:33:40;;;;;;;;;;;11.30;99.90;;;;;;8383807;28;19984;-72
2023/04/16 10:37:42;;;;;;;;;;;11.30;99.90;;;;;;8387005;28;19930;-72
2023/04/16 10:41:43;;;;;;;;;;;11.40;99.90;;;;;;8384945;28;19931;-72
2023/04/16 10:45:46;;;;;;;;;;;11.50;99.90;;;;;;8382976;28;20303;-72
2023/04/16 10:49:48;;;;;;;;;;;11.60;99.90;;;;;;8394216;28;19948;-72
2023/04/16 10:53:49;;;;;;;;;;;11.60;99.90;;;;;;8376029;28;19932;-71
2023/04/16 10:57:52;;;;;;;;;;;11.60;99.90;;;;;;8381475;28;20392;-72
2023/04/16 11:01:55;;;;;;;;;;;11.60;99.90;;;;;;8379829;28;19936;-72
2023/04/16 11:06:10;;;;;;;;;;;11.60;99.90;;;;;;8387486;28;19932;-71
2023/04/16 11:10:12;;;;;;;;;;;11.60;99.90;;;;;;8377571;28;19939;-72
2023/04/16 11:14:14;;;;;;;;;;;11.60;99.90;;;;;;8379909;28;19939;-72
2023/04/16 11:18:19;;;;;;;;;;;11.60;99.90;;;;;;8380043;28;19932;-72
2023/04/16 11:22:21;;;;;;;;;;;11.60;99.90;;;;;;8393610;28;19924;-72
2023/04/16 11:26:23;;;;;;;;;;;11.60;99.90;;;;;;8384657;28;19936;-72
2023/04/16 11:30:32;;;;;;;;;;;11.70;99.90;;;;;;8384063;28;19925;-72
2023/04/16 11:34:41;;;;;;;;;;;11.80;99.90;;;;;;8378494;28;20376;-72
2023/04/16 11:38:43;;;;;;;;;;;11.90;99.90;;;;;;8382291;28;19929;-72
2023/04/16 11:42:45;;;;;;;;;;;11.90;99.90;;;;;;8373207;28;20036;-72
2023/04/16 11:46:46;;;;;;;;;;;12.00;99.90;;;;;;8377825;28;19951;-72
2023/04/16 11:50:57;;;;;;;;;;;12.00;99.90;;;;;;8354597;28;20391;-72
2023/04/16 11:54:59;;;;;;;;;;;12.00;99.90;;;;;;8366228;28;19932;-73
2023/04/16 11:59:05;;;;;;;;;;;12.10;99.90;;;;;;8364204;28;20384;-72
2023/04/16 12:03:07;;;;;;;;;;;12.20;99.90;;;;;;8371334;28;19932;-71
2023/04/16 12:07:12;;;;;;;;;;;12.30;99.90;;;;;;8395612;28;19924;-72
2023/04/16 12:11:14;;;;;;;;;;;12.30;99.90;;;;;;8355326;28;19924;-72
2023/04/16 12:15:16;;;;;;;;;;;12.30;99.90;;;;;;8361457;28;19935;-72
2023/04/16 12:19:17;;;;;;;;;;;12.30;99.90;;;;;;8371531;28;20326;-73
2023/04/16 12:23:23;;;;;;;;;;;12.30;99.90;;;;;;8371353;28;19924;-72
2023/04/16 12:27:28;;;;;;;;;;;12.30;99.90;;;;;;8364597;28;19931;-72
2023/04/16 12:31:36;;;;;;;;;;;12.20;99.90;;;;;;8362248;28;20451;-72
2023/04/16 12:35:40;;;;;;;;;;;12.20;99.90;;;;;;8362592;28;19972;-72
2023/04/16 12:39:41;;;;;;;;;;;12.30;99.90;;;;;;8367474;28;20339;-72
2023/04/16 12:43:43;;;;;;;;;;;12.30;99.90;;;;;;8365382;28;19933;-72
2023/04/16 12:47:45;;;;;;;;;;;12.40;99.90;;;;;;8367176;28;19970;-72
2023/04/16 12:51:47;;;;;;;;;;;12.50;99.90;;;;;;8374553;28;19979;-72
2023/04/16 12:55:49;;;;;;;;;;;12.60;99.90;;;;;;8367298;28;20392;-72
2023/04/16 12:59:51;;;;;;;;;;;12.70;99.90;;;;;;8400564;28;20044;-72
2023/04/16 13:03:53;;;;;;;;;;;12.70;99.90;;;;;;8367972;28;20026;-72
2023/04/16 13:07:54;;;;;;;;;;;12.70;99.90;;;;;;8361365;28;19928;-72
2023/04/16 13:11:56;;;;;;;;;;;12.70;99.90;;;;;;8359812;28;20019;-72
2023/04/16 13:15:58;;;;;;;;;;;12.70;99.90;;;;;;8363948;28;19925;-72
2023/04/16 13:19:59;;;;;;;;;;;12.80;99.90;;;;;;8363556;28;19955;-72
2023/04/16 13:24:01;;;;;;;;;;;12.80;99.90;;;;;;8363243;28;19941;-73
2023/04/16 13:28:03;;;;;;;;;;;12.90;99.90;;;;;;8379066;28;20340;-72
2023/04/16 13:32:05;;;;;;;;;;;13.10;99.90;;;;;;8392906;28;20341;-72
2023/04/16 13:36:06;;;;;;;;;;;13.20;99.90;;;;;;8397378;28;19948;-73
2023/04/16 13:40:08;;;;;;;;;;;13.30;99.90;;;;;;8367891;28;19924;-72
2023/04/16 13:44:10;;;;;;;;;;;13.30;99.90;;;;;;8356936;28;19979;-72
2023/04/16 13:48:11;;;;;;;;;;;13.30;99.90;;;;;;8358796;28;19962;-72
2023/04/16 13:52:13;;;;;;;;;;;13.20;99.90;;;;;;8357070;28;19928;-72
2023/04/16 13:56:14;;;;;;;;;;;13.20;99.90;;;;;;8392040;28;19928;-72
2023/04/16 14:00:16;;;;;;;;;;;13.20;99.90;;;;;;8357769;28;19928;-72
2023/04/16 14:04:18;;;;;;;;;;;13.10;99.90;;;;;;8368865;28;19931;-72
2023/04/16 14:08:20;;;;;;;;;;;13.00;99.90;;;;;;8364168;28;20392;-72
2023/04/16 14:12:22;;;;;;;;;;;13.00;99.90;;;;;;8360126;28;20420;-73
2023/04/16 14:16:25;;;;;;;;;;;13.00;99.90;;;;;;8393560;27;19979;-72
2023/04/16 14:20:26;;;;;;;;;;;13.10;99.90;;;;;;8359905;28;20280;-72
2023/04/16 14:24:28;;;;;;;;;;;13.10;99.90;;;;;;8359248;28;20388;-72
2023/04/16 14:28:30;;;;;;;;;;;13.10;99.90;;;;;;8358684;28;19979;-72
2023/04/16 14:32:32;;;;;;;;;;;13.20;99.90;;;;;;8361891;28;19924;-72
2023/04/16 14:36:34;;;;;;;;;;;13.30;99.90;;;;;;8361129;28;20027;-72
2023/04/16 14:40:35;;;;;;;;;;;13.40;99.90;;;;;;8361463;28;19964;-72
2023/04/16 14:44:37;;;;;;;;;;;13.60;99.90;;;;;;8359722;28;19938;-72
2023/04/16 14:48:39;;;;;;;;;;;13.70;99.90;;;;;;8361186;28;19924;-72
2023/04/16 14:52:41;;;;;;;;;;;13.60;99.90;;;;;;8361708;28;19933;-72
2023/04/16 14:56:42;;;;;;;;;;;13.60;99.90;;;;;;8378332;28;20284;-72
2023/04/16 15:00:44;;;;;;;;;;;13.70;99.90;;;;;;8356125;28;20034;-72
2023/04/16 15:04:46;;;;;;;;;;;13.80;99.90;;;;;;8356094;28;20430;-72
2023/04/16 15:08:47;;;;;;;;;;;13.90;99.90;;;;;;8358089;28;19925;-72
2023/04/16 15:12:49;;;;;;;;;;;14.00;99.90;;;;;;8359897;28;19932;-72
2023/04/16 15:16:51;;;;;;;;;;;13.90;99.90;;;;;;8361317;28;19975;-72
2023/04/16 15:20:53;;;;;;;;;;;13.80;99.90;;;;;;8356994;28;19970;-72
2023/04/16 15:24:54;;;;;;;;;;;13.70;99.90;;;;;;8361027;28;19925;-72
2023/04/16 15:28:56;;;;;;;;;;;13.70;99.90;;;;;;8392590;28;19952;-72
2023/04/16 15:32:58;;;;;;;;;;;13.70;99.90;;;;;;8355836;28;19976;-72
2023/04/16 15:36:59;;;;;;;;;;;13.70;99.90;;;;;;8361381;28;19970;-72
2023/04/16 15:41:01;;;;;;;;;;;13.70;99.90;;;;;;8369855;28;20391;-72
2023/04/16 15:45:03;;;;;;;;;;;13.70;99.90;;;;;;8357978;28;20396;-72
2023/04/16 15:49:04;;;;;;;;;;;13.70;99.90;;;;;;8353992;28;19939;-72
2023/04/16 15:53:06;;;;;;;;;;;13.70;99.90;;;;;;8355197;28;20559;-72
2023/04/16 15:57:08;;;;;;;;;;;13.60;99.90;;;;;;8368052;28;19931;-72
2023/04/16 16:01:09;;;;;;;;;;;13.60;99.90;;;;;;8361986;28;19932;-72
2023/04/16 16:05:14;;;;;;;;;;;13.60;99.90;;;;;;8375305;28;19935;-72
2023/04/16 16:09:16;;;;;;;;;;;13.50;99.90;;;;;;8365564;28;20332;-72
2023/04/16 16:13:18;;;;;;;;;;;13.40;99.90;;;;;;8379951;28;19976;-73
2023/04/16 16:17:20;;;;;;;;;;;13.30;99.90;;;;;;8363719;28;20016;-72
2023/04/16 16:21:22;;;;;;;;;;;13.30;99.90;;;;;;8362357;28;20011;-72
2023/04/16 16:25:23;;;;;;;;;;;13.30;99.90;;;;;;8380846;28;20028;-72
2023/04/16 16:29:25;;;;;;;;;;;13.30;99.90;;;;;;8367922;28;19929;-72
2023/04/16 16:33:27;;;;;;;;;;;13.30;99.90;;;;;;8373132;28;19959;-72
2023/04/16 16:37:29;;;;;;;;;;;13.20;99.90;;;;;;8362214;28;19932;-72
2023/04/16 16:41:31;;;;;;;;;;;13.20;99.90;;;;;;8392570;28;20423;-72
2023/04/16 16:45:32;;;;;;;;;;;13.10;99.90;;;;;;8357573;28;20406;-71
2023/04/16 16:49:34;;;;;;;;;;;13.10;99.90;;;;;;8364902;28;19935;-72
2023/04/16 16:53:36;;;;;;;;;;;13.10;99.90;;;;;;8365020;28;20359;-72
2023/04/16 16:57:38;;;;;;;;;;;13.10;99.90;;;;;;8363623;28;19925;-72
2023/04/16 17:01:39;;;;;;;;;;;13.10;99.90;;;;;;8360010;28;19929;-72
2023/04/16 17:05:41;;;;;;;;;;;13.00;99.90;;;;;;8358976;28;19965;-72
2023/04/16 17:09:43;;;;;;;;;;;13.00;99.90;;;;;;8368896;28;19925;-73
2023/04/16 17:13:45;;;;;;;;;;;12.90;99.90;;;;;;8365229;28;19948;-72
2023/04/16 17:17:46;;;;;;;;;;;12.80;99.90;;;;;;8401348;28;19925;-72
2023/04/16 17:21:49;;;;;;;;;;;12.70;99.90;;;;;;8357745;28;20006;-72
2023/04/16 17:25:50;;;;;;;;;;;12.60;99.90;;;;;;8356829;28;20281;-72
2023/04/16 17:29:58;;;;;;;;;;;12.60;99.90;;;;;;8368830;28;20049;-72
2023/04/16 17:34:00;;;;;;;;;;;12.50;99.90;;;;;;8362833;28;19933;-72
2023/04/16 17:38:01;;;;;;;;;;;12.50;99.90;;;;;;8362220;28;20342;-72
2023/04/16 17:42:03;;;;;;;;;;;12.40;99.90;;;;;;8369276;28;19928;-72
2023/04/16 17:46:05;;;;;;;;;;;12.30;99.90;;;;;;8369539;28;19940;-73
2023/04/16 17:50:07;;;;;;;;;;;12.20;99.90;;;;;;8362162;28;19944;-72
2023/04/16 17:54:09;;;;;;;;;;;12.10;99.90;;;;;;8377005;28;20313;-72
2023/04/16 17:58:11;;;;;;;;;;;12.10;99.90;;;;;;8358046;28;19925;-72
2023/04/16 18:02:12;;;;;;;;;;;12.00;99.90;;;;;;8360307;28;19933;-72
2023/04/16 18:06:14;;;;;;;;;;;12.00;99.90;;;;;;8377325;28;20274;-72
2023/04/16 18:10:16;;;;;;;;;;;11.90;99.90;;;;;;8358965;28;19925;-72
2023/04/16 18:14:20;;;;;;;;;;;11.90;99.90;;;;;;8375080;28;20027;-72
2023/04/16 18:18:21;;;;;;;;;;;11.90;99.90;;;;;;8356916;28;20396;-72
2023/04/16 18:22:23;;;;;;;;;;;11.80;99.90;;;;;;8362845;28;19925;-72
2023/04/16 18:26:27;;;;;;;;;;;11.70;99.90;;;;;;8357500;28;19952;-73
2023/04/16 18:30:30;;;;;;;;;;;11.70;99.90;;;;;;8359020;28;19925;-72
2023/04/16 18:34:32;;;;;;;;;;;11.60;99.90;;;;;;8360209;28;20323;-72
2023/04/16 18:38:33;;;;;;;;;;;11.50;99.90;;;;;;8362400;28;19928;-72
2023/04/16 18:42:35;;;;;;;;;;;11.50;99.90;;;;;;8361898;28;20391;-72
2023/04/16 18:46:37;;;;;;;;;;;11.50;99.90;;;;;;8352151;28;19925;-72
2023/04/16 18:50:38;;;;;;;;;;;11.40;99.90;;;;;;8357430;28;19928;-72
2023/04/16 18:54:40;;;;;;;;;;;11.40;99.90;;;;;;8356597;28;20023;-72
2023/04/16 18:58:42;;;;;;;;;;;11.40;99.90;;;;;;8352382;28;20495;-72
2023/04/16 19:02:43;;;;;;;;;;;11.30;99.90;;;;;;8354894;28;19925;-72
2023/04/16 19:06:47;;;;;;;;;;;11.20;99.90;;;;;;8371113;28;19935;-72
2023/04/16 19:10:49;;;;;;;;;;;11.20;99.90;;;;;;8361404;28;20055;-72
2023/04/16 19:14:50;;;;;;;;;;;11.20;99.90;;;;;;8356533;28;19928;-72
2023/04/16 19:18:52;;;;;;;;;;;11.20;99.90;;;;;;8391906;28;19925;-72
2023/04/16 19:22:54;;;;;;;;;;;11.10;99.90;;;;;;8356778;28;19936;-72
2023/04/16 19:26:56;;;;;;;;;;;11.00;99.90;;;;;;8364175;28;20011;-72
2023/04/16 19:30:57;;;;;;;;;;;11.00;99.90;;;;;;8358784;28;19925;-72
2023/04/16 19:34:59;;;;;;;;;;;10.90;99.90;;;;;;8359236;28;19986;-72
2023/04/16 19:39:00;;;;;;;;;;;10.90;99.90;;;;;;8357991;28;19933;-72
2023/04/16 19:43:02;;;;;;;;;;;10.90;99.90;;;;;;8361292;28;19928;-72
2023/04/16 19:47:05;;;;;;;;;;;11.00;99.90;;;;;;8357658;28;19956;-72
2023/04/16 19:51:07;;;;;;;;;;;11.00;99.90;;;;;;8357770;28;19938;-72
2023/04/16 19:55:08;;;;;;;;;;;10.90;99.90;;;;;;8363635;28;19935;-72
2023/04/16 19:59:10;;;;;;;;;;;10.80;99.90;;;;;;8357782;28;19925;-72
2023/04/16 20:03:12;;;;;;;;;;;10.70;99.90;;;;;;8354172;28;20359;-72
2023/04/16 20:07:13;;;;;;;;;;;10.60;99.90;;;;;;8357975;28;19931;-72
2023/04/16 20:11:16;;;;;;;;;;;10.70;99.90;;;;;;8391610;28;19968;-72
2023/04/16 20:15:18;;;;;;;;;;;10.70;99.90;;;;;;8356885;28;19968;-72
2023/04/16 20:19:20;;;;;;;;;;;10.60;99.90;;;;;;8357673;28;19936;-72
2023/04/16 20:23:22;;;;;;;;;;;10.60;99.90;;;;;;8356885;28;19931;-72
2023/04/16 20:27:24;;;;;;;;;;;10.60;99.90;;;;;;8356006;28;20011;-72
2023/04/16 20:31:26;;;;;;;;;;;10.60;99.90;;;;;;8355969;28;19929;-72
2023/04/16 20:35:27;;;;;;;;;;;10.60;99.90;;;;;;8360115;28;19947;-72
2023/04/16 20:39:32;;;;;;;;;;;10.60;99.90;;;;;;8352541;28;19951;-72
2023/04/16 20:43:39;;;;;;;;;;;10.60;99.90;;;;;;8363222;28;20368;-73
2023/04/16 20:47:42;;;;;;;;;;;10.50;99.90;;;;;;8395001;28;19971;-73
2023/04/16 20:51:43;;;;;;;;;;;10.50;99.90;;;;;;8363641;28;19928;-72
2023/04/16 20:55:45;;;;;;;;;;;10.50;99.90;;;;;;8364801;28;20318;-72
2023/04/16 20:59:48;;;;;;;;;;;10.50;99.90;;;;;;8360318;28;19964;-72
2023/04/16 21:03:50;;;;;;;;;;;10.60;99.90;;;;;;8389773;28;19932;-73
2023/04/16 21:07:51;;;;;;;;;;;10.60;99.90;;;;;;8393651;28;19924;-72
2023/04/16 21:11:55;;;;;;;;;;;10.50;99.90;;;;;;8391250;28;19939;-72
2023/04/16 21:15:57;;;;;;;;;;;10.50;99.90;;;;;;8395797;28;19960;-72
2023/04/16 21:19:59;;;;;;;;;;;10.50;99.90;;;;;;8389245;28;19931;-72
2023/04/16 21:24:00;;;;;;;;;;;10.50;99.90;;;;;;8391419;28;19992;-72
2023/04/16 21:28:02;;;;;;;;;;;10.50;99.90;;;;;;8393778;28;19924;-72
2023/04/16 21:32:04;;;;;;;;;;;10.50;99.90;;;;;;8385466;28;19925;-72
2023/04/16 21:36:06;;;;;;;;;;;10.50;99.90;;;;;;8394803;28;19928;-72
2023/04/16 21:40:08;;;;;;;;;;;10.40;99.90;;;;;;8388012;28;19924;-72
2023/04/16 21:44:09;;;;;;;;;;;10.40;99.90;;;;;;8390884;28;19983;-72
2023/04/16 21:48:11;;;;;;;;;;;10.40;99.90;;;;;;8398501;28;19931;-72
2023/04/16 21:52:13;;;;;;;;;;;10.40;99.90;;;;;;8387521;28;20287;-72
2023/04/16 21:56:14;;;;;;;;;;;10.40;99.90;;;;;;8392155;28;19925;-72
2023/04/16 22:00:17;;;;;;;;;;;10.30;99.90;;;;;;8351386;28;19928;-72
2023/04/16 22:09:23;;;;;;;;;;;10.20;99.90;;;;;;8386778;28;20015;-72
2023/04/16 22:13:25;;;;;;;;;;;10.20;99.90;;;;;;8386685;28;19925;-72
2023/04/16 22:22:32;;;;;;;;;;;10.20;99.90;;;;;;8388487;28;21342;-72
2023/04/16 22:26:34;;;;;;;;;;;10.30;99.90;;;;;;8400650;28;20298;-72
2023/04/16 22:30:35;;;;;;;;;;;10.20;99.90;;;;;;8390172;28;20016;-72
2023/04/16 22:34:37;;;;;;;;;;;10.20;99.90;;;;;;8389739;28;20394;-72
2023/04/16 22:38:39;;;;;;;;;;;10.20;99.90;;;;;;8391337;28;19963;-72
2023/04/16 22:42:40;;;;;;;;;;;10.20;99.90;;;;;;8384956;28;19925;-72
2023/04/16 22:46:42;;;;;;;;;;;10.10;99.90;;;;;;8382333;28;19963;-72
2023/04/16 22:50:47;;;;;;;;;;;10.10;99.90;;;;;;8387798;28;19925;-72
2023/04/16 22:54:48;;;;;;;;;;;10.10;99.90;;;;;;8382700;28;19967;-72
2023/04/16 22:58:50;;;;;;;;;;;10.10;99.90;;;;;;8377648;28;19971;-72
2023/04/16 23:02:52;;;;;;;;;;;10.20;99.90;;;;;;8387810;28;20356;-72
2023/04/16 23:06:53;;;;;;;;;;;10.10;99.90;;;;;;8415798;28;20034;-72
2023/04/16 23:10:55;;;;;;;;;;;10.00;99.90;;;;;;8379520;28;20000;-72
2023/04/16 23:14:57;;;;;;;;;;;10.00;99.90;;;;;;8392731;28;19964;-72
2023/04/16 23:18:58;;;;;;;;;;;9.90;99.90;;;;;;8383782;28;19924;-72
2023/04/16 23:23:00;;;;;;;;;;;9.90;99.90;;;;;;8390771;28;19931;-72
2023/04/16 23:27:02;;;;;;;;;;;9.90;99.90;;;;;;8393616;28;20291;-72
2023/04/16 23:31:04;;;;;;;;;;;9.90;99.90;;;;;;8386014;28;19924;-72
2023/04/16 23:35:08;;;;;;;;;;;9.90;99.90;;;;;;8386290;28;19925;-72
2023/04/16 23:39:09;;;;;;;;;;;9.90;99.90;;;;;;8389629;28;19931;-72
2023/04/16 23:43:11;;;;;;;;;;;9.90;99.90;;;;;;8386497;28;19951;-72
2023/04/16 23:47:13;;;;;;;;;;;9.90;99.90;;;;;;8381032;28;20341;-72
2023/04/16 23:51:14;;;;;;;;;;;9.80;99.90;;;;;;8383015;28;20445;-72
2023/04/16 23:55:16;;;;;;;;;;;9.80;99.90;;;;;;8384180;28;19968;-72
2023/04/16 23:59:18;;;;;;;;;;;9.80;99.90;;;;;;8374245;28;19928;-72
